sensor_id;sensor_type;location;lat;lon;timestamp;P1;P2;P0
73305;PMS5003;61530;51.158;0.880;2023-10-09T00:00:05;15;14;8
73305;PMS5003;61530;51.158;0.880;2023-10-09T00:01:07;23;19;8
73305;PMS5003;61530;51.158;0.880;2023-10-09T00:02:11;16;15;9
73305;PMS5003;61530;51.158;0.880;2023-10-09T00:03:13;20;15;9
73305;PMS5003;61530;51.158;0.880;2023-10-09T00:04:16;20;14;8
73305;PMS5003;61530;51.158;0.880;2023-10-09T00:05:19;12;12;8
73305;PMS5003;61530;51.158;0.880;2023-10-09T00:06:22;18;15;9
73305;PMS5003;61530;51.158;0.880;2023-10-09T00:07:25;17;13;8
73305;PMS5003;61530;51.158;0.880;2023-10-09T00:08:28;15;13;9
73305;PMS5003;61530;51.158;0.880;2023-10-09T00:09:31;15;12;8
73305;PMS5003;61530;51.158;0.880;2023-10-09T00:10:34;16;14;9
73305;PMS5003;61530;51.158;0.880;2023-10-09T00:11:37;16;16;11
73305;PMS5003;61530;51.158;0.880;2023-10-09T00:12:40;15;12;9
73305;PMS5003;61530;51.158;0.880;2023-10-09T00:13:44;13;13;8
73305;PMS5003;61530;51.158;0.880;2023-10-09T00:14:46;14;14;9
73305;PMS5003;61530;51.158;0.880;2023-10-09T00:15:49;18;14;9
73305;PMS5003;61530;51.158;0.880;2023-10-09T00:16:52;20;12;9
73305;PMS5003;61530;51.158;0.880;2023-10-09T00:17:55;12;12;7
73305;PMS5003;61530;51.158;0.880;2023-10-09T00:18:58;13;11;8
73305;PMS5003;61530;51.158;0.880;2023-10-09T00:20:01;17;15;8
73305;PMS5003;61530;51.158;0.880;2023-10-09T00:21:04;13;13;8
73305;PMS5003;61530;51.158;0.880;2023-10-09T00:22:07;15;14;10
73305;PMS5003;61530;51.158;0.880;2023-10-09T00:23:10;12;12;8
73305;PMS5003;61530;51.158;0.880;2023-10-09T00:24:13;16;15;8
73305;PMS5003;61530;51.158;0.880;2023-10-09T00:25:16;16;13;9
73305;PMS5003;61530;51.158;0.880;2023-10-09T00:26:19;14;14;9
73305;PMS5003;61530;51.158;0.880;2023-10-09T00:27:22;14;14;9
73305;PMS5003;61530;51.158;0.880;2023-10-09T00:28:25;16;13;8
73305;PMS5003;61530;51.158;0.880;2023-10-09T00:29:28;16;13;7
73305;PMS5003;61530;51.158;0.880;2023-10-09T00:30:31;19;19;9
73305;PMS5003;61530;51.158;0.880;2023-10-09T00:31:34;13;13;7
73305;PMS5003;61530;51.158;0.880;2023-10-09T00:32:37;14;14;9
73305;PMS5003;61530;51.158;0.880;2023-10-09T00:33:40;13;13;8
73305;PMS5003;61530;51.158;0.880;2023-10-09T00:34:43;13;12;8
73305;PMS5003;61530;51.158;0.880;2023-10-09T00:35:46;17;16;9
73305;PMS5003;61530;51.158;0.880;2023-10-09T00:36:49;12;11;7
73305;PMS5003;61530;51.158;0.880;2023-10-09T00:37:52;15;13;8
73305;PMS5003;61530;51.158;0.880;2023-10-09T00:38:55;16;15;10
73305;PMS5003;61530;51.158;0.880;2023-10-09T00:39:58;13;13;8
73305;PMS5003;61530;51.158;0.880;2023-10-09T00:41:01;13;12;8
73305;PMS5003;61530;51.158;0.880;2023-10-09T00:42:04;13;12;7
73305;PMS5003;61530;51.158;0.880;2023-10-09T00:43:09;13;12;7
73305;PMS5003;61530;51.158;0.880;2023-10-09T00:44:12;14;14;9
73305;PMS5003;61530;51.158;0.880;2023-10-09T00:45:15;14;13;9
73305;PMS5003;61530;51.158;0.880;2023-10-09T00:46:19;19;18;9
73305;PMS5003;61530;51.158;0.880;2023-10-09T00:47:21;15;14;9
73305;PMS5003;61530;51.158;0.880;2023-10-09T00:48:24;14;13;9
73305;PMS5003;61530;51.158;0.880;2023-10-09T00:49:27;19;18;8
73305;PMS5003;61530;51.158;0.880;2023-10-09T00:50:30;13;13;10
73305;PMS5003;61530;51.158;0.880;2023-10-09T00:51:33;18;18;10
73305;PMS5003;61530;51.158;0.880;2023-10-09T00:52:37;14;13;9
73305;PMS5003;61530;51.158;0.880;2023-10-09T00:53:39;14;12;9
73305;PMS5003;61530;51.158;0.880;2023-10-09T00:54:42;14;14;10
73305;PMS5003;61530;51.158;0.880;2023-10-09T00:55:45;13;13;8
73305;PMS5003;61530;51.158;0.880;2023-10-09T00:56:48;14;14;8
73305;PMS5003;61530;51.158;0.880;2023-10-09T00:57:51;17;13;8
73305;PMS5003;61530;51.158;0.880;2023-10-09T00:58:55;12;12;9
73305;PMS5003;61530;51.158;0.880;2023-10-09T00:59:57;15;14;8
73305;PMS5003;61530;51.158;0.880;2023-10-09T01:01:00;20;19;8
73305;PMS5003;61530;51.158;0.880;2023-10-09T01:02:03;16;13;9
73305;PMS5003;61530;51.158;0.880;2023-10-09T01:03:06;19;12;7
73305;PMS5003;61530;51.158;0.880;2023-10-09T01:04:09;13;12;8
73305;PMS5003;61530;51.158;0.880;2023-10-09T01:05:12;14;13;8
73305;PMS5003;61530;51.158;0.880;2023-10-09T01:06:15;11;10;6
73305;PMS5003;61530;51.158;0.880;2023-10-09T01:07:18;17;14;8
73305;PMS5003;61530;51.158;0.880;2023-10-09T01:08:22;14;12;8
73305;PMS5003;61530;51.158;0.880;2023-10-09T01:09:24;16;12;9
73305;PMS5003;61530;51.158;0.880;2023-10-09T01:10:27;15;14;9
73305;PMS5003;61530;51.158;0.880;2023-10-09T01:11:30;15;13;9
73305;PMS5003;61530;51.158;0.880;2023-10-09T01:12:33;16;16;9
73305;PMS5003;61530;51.158;0.880;2023-10-09T01:13:37;13;13;8
73305;PMS5003;61530;51.158;0.880;2023-10-09T01:14:39;16;14;8
73305;PMS5003;61530;51.158;0.880;2023-10-09T01:15:42;14;14;8
73305;PMS5003;61530;51.158;0.880;2023-10-09T01:16:45;15;14;9
73305;PMS5003;61530;51.158;0.880;2023-10-09T01:17:48;11;11;9
73305;PMS5003;61530;51.158;0.880;2023-10-09T01:18:53;14;11;8
73305;PMS5003;61530;51.158;0.880;2023-10-09T01:19:54;19;12;9
73305;PMS5003;61530;51.158;0.880;2023-10-09T01:20:57;14;13;8
73305;PMS5003;61530;51.158;0.880;2023-10-09T01:22:00;16;14;9
73305;PMS5003;61530;51.158;0.880;2023-10-09T01:23:03;14;14;9
73305;PMS5003;61530;51.158;0.880;2023-10-09T01:24:07;15;13;9
73305;PMS5003;61530;51.158;0.880;2023-10-09T01:25:10;12;11;7
73305;PMS5003;61530;51.158;0.880;2023-10-09T01:26:13;16;14;9
73305;PMS5003;61530;51.158;0.880;2023-10-09T01:27:16;16;12;8
73305;PMS5003;61530;51.158;0.880;2023-10-09T01:28:19;18;18;9
73305;PMS5003;61530;51.158;0.880;2023-10-09T01:29:22;14;14;9
73305;PMS5003;61530;51.158;0.880;2023-10-09T01:30:25;17;15;9
73305;PMS5003;61530;51.158;0.880;2023-10-09T01:31:28;13;13;8
73305;PMS5003;61530;51.158;0.880;2023-10-09T01:32:31;16;13;9
73305;PMS5003;61530;51.158;0.880;2023-10-09T01:33:34;20;14;9
73305;PMS5003;61530;51.158;0.880;2023-10-09T01:34:37;16;14;8
73305;PMS5003;61530;51.158;0.880;2023-10-09T01:35:40;17;15;9
73305;PMS5003;61530;51.158;0.880;2023-10-09T01:36:43;16;14;9
73305;PMS5003;61530;51.158;0.880;2023-10-09T01:37:46;16;14;9
73305;PMS5003;61530;51.158;0.880;2023-10-09T01:38:49;14;12;8
73305;PMS5003;61530;51.158;0.880;2023-10-09T01:39:53;12;12;7
73305;PMS5003;61530;51.158;0.880;2023-10-09T01:40:56;14;14;8
73305;PMS5003;61530;51.158;0.880;2023-10-09T01:41:59;19;17;10
73305;PMS5003;61530;51.158;0.880;2023-10-09T01:43:02;16;13;9
73305;PMS5003;61530;51.158;0.880;2023-10-09T01:44:05;22;16;9
73305;PMS5003;61530;51.158;0.880;2023-10-09T01:45:08;13;12;9
73305;PMS5003;61530;51.158;0.880;2023-10-09T01:46:11;14;14;9
73305;PMS5003;61530;51.158;0.880;2023-10-09T01:47:14;15;13;9
73305;PMS5003;61530;51.158;0.880;2023-10-09T01:48:17;11;11;7
73305;PMS5003;61530;51.158;0.880;2023-10-09T01:49:20;23;22;10
73305;PMS5003;61530;51.158;0.880;2023-10-09T01:50:23;14;13;9
73305;PMS5003;61530;51.158;0.880;2023-10-09T01:51:26;15;13;9
73305;PMS5003;61530;51.158;0.880;2023-10-09T01:52:29;17;14;9
73305;PMS5003;61530;51.158;0.880;2023-10-09T01:53:32;13;13;9
73305;PMS5003;61530;51.158;0.880;2023-10-09T01:54:35;12;12;8
73305;PMS5003;61530;51.158;0.880;2023-10-09T01:55:38;12;12;8
73305;PMS5003;61530;51.158;0.880;2023-10-09T01:56:41;15;14;8
73305;PMS5003;61530;51.158;0.880;2023-10-09T01:57:44;13;11;8
73305;PMS5003;61530;51.158;0.880;2023-10-09T01:58:47;18;16;9
73305;PMS5003;61530;51.158;0.880;2023-10-09T01:59:51;15;14;9
73305;PMS5003;61530;51.158;0.880;2023-10-09T02:00:54;15;12;8
73305;PMS5003;61530;51.158;0.880;2023-10-09T02:01:57;17;16;10
73305;PMS5003;61530;51.158;0.880;2023-10-09T02:03:00;12;12;9
73305;PMS5003;61530;51.158;0.880;2023-10-09T02:04:03;14;14;8
73305;PMS5003;61530;51.158;0.880;2023-10-09T02:05:07;12;12;8
73305;PMS5003;61530;51.158;0.880;2023-10-09T02:06:09;14;13;7
73305;PMS5003;61530;51.158;0.880;2023-10-09T02:07:12;14;13;8
73305;PMS5003;61530;51.158;0.880;2023-10-09T02:08:15;19;15;8
73305;PMS5003;61530;51.158;0.880;2023-10-09T02:09:18;14;14;8
73305;PMS5003;61530;51.158;0.880;2023-10-09T02:10:22;14;13;8
73305;PMS5003;61530;51.158;0.880;2023-10-09T02:11:24;15;15;9
73305;PMS5003;61530;51.158;0.880;2023-10-09T02:12:27;15;12;7
73305;PMS5003;61530;51.158;0.880;2023-10-09T02:13:30;14;13;8
73305;PMS5003;61530;51.158;0.880;2023-10-09T02:14:33;13;13;9
73305;PMS5003;61530;51.158;0.880;2023-10-09T02:15:37;13;13;9
73305;PMS5003;61530;51.158;0.880;2023-10-09T02:16:39;15;13;8
73305;PMS5003;61530;51.158;0.880;2023-10-09T02:17:42;17;16;9
73305;PMS5003;61530;51.158;0.880;2023-10-09T02:18:45;15;15;8
73305;PMS5003;61530;51.158;0.880;2023-10-09T02:19:48;14;13;9
73305;PMS5003;61530;51.158;0.880;2023-10-09T02:20:52;16;14;9
73305;PMS5003;61530;51.158;0.880;2023-10-09T02:21:54;14;13;8
73305;PMS5003;61530;51.158;0.880;2023-10-09T02:22:57;15;15;10
73305;PMS5003;61530;51.158;0.880;2023-10-09T02:24:01;14;12;7
73305;PMS5003;61530;51.158;0.880;2023-10-09T02:25:04;14;11;8
73305;PMS5003;61530;51.158;0.880;2023-10-09T02:26:06;15;13;9
73305;PMS5003;61530;51.158;0.880;2023-10-09T02:27:09;19;17;10
73305;PMS5003;61530;51.158;0.880;2023-10-09T02:28:12;17;15;10
73305;PMS5003;61530;51.158;0.880;2023-10-09T02:29:15;14;12;9
73305;PMS5003;61530;51.158;0.880;2023-10-09T02:30:19;20;20;11
73305;PMS5003;61530;51.158;0.880;2023-10-09T02:31:21;17;15;8
73305;PMS5003;61530;51.158;0.880;2023-10-09T02:32:24;14;14;10
73305;PMS5003;61530;51.158;0.880;2023-10-09T02:33:27;19;18;12
73305;PMS5003;61530;51.158;0.880;2023-10-09T02:34:30;17;15;11
73305;PMS5003;61530;51.158;0.880;2023-10-09T02:35:33;14;13;9
73305;PMS5003;61530;51.158;0.880;2023-10-09T02:36:36;14;14;9
73305;PMS5003;61530;51.158;0.880;2023-10-09T02:37:39;19;17;11
73305;PMS5003;61530;51.158;0.880;2023-10-09T02:38:42;20;17;11
73305;PMS5003;61530;51.158;0.880;2023-10-09T02:39:45;24;17;11
73305;PMS5003;61530;51.158;0.880;2023-10-09T02:40:49;14;14;10
73305;PMS5003;61530;51.158;0.880;2023-10-09T02:41:51;17;14;9
73305;PMS5003;61530;51.158;0.880;2023-10-09T02:42:54;19;18;11
73305;PMS5003;61530;51.158;0.880;2023-10-09T02:43:57;19;18;8
73305;PMS5003;61530;51.158;0.880;2023-10-09T02:45:00;12;12;8
73305;PMS5003;61530;51.158;0.880;2023-10-09T02:46:03;15;15;9
73305;PMS5003;61530;51.158;0.880;2023-10-09T02:47:06;14;13;9
73305;PMS5003;61530;51.158;0.880;2023-10-09T02:48:09;16;16;9
73305;PMS5003;61530;51.158;0.880;2023-10-09T02:49:12;18;14;9
73305;PMS5003;61530;51.158;0.880;2023-10-09T02:50:15;17;17;9
73305;PMS5003;61530;51.158;0.880;2023-10-09T02:51:18;23;20;10
73305;PMS5003;61530;51.158;0.880;2023-10-09T02:52:21;23;19;11
73305;PMS5003;61530;51.158;0.880;2023-10-09T02:53:24;14;14;9
73305;PMS5003;61530;51.158;0.880;2023-10-09T02:54:27;16;16;8
73305;PMS5003;61530;51.158;0.880;2023-10-09T02:55:30;20;17;9
73305;PMS5003;61530;51.158;0.880;2023-10-09T02:56:36;14;14;9
73305;PMS5003;61530;51.158;0.880;2023-10-09T02:57:39;16;13;9
73305;PMS5003;61530;51.158;0.880;2023-10-09T02:58:42;17;15;9
73305;PMS5003;61530;51.158;0.880;2023-10-09T02:59:45;15;15;9
73305;PMS5003;61530;51.158;0.880;2023-10-09T03:00:48;20;18;10
73305;PMS5003;61530;51.158;0.880;2023-10-09T03:01:51;15;14;10
73305;PMS5003;61530;51.158;0.880;2023-10-09T03:02:54;21;17;12
73305;PMS5003;61530;51.158;0.880;2023-10-09T03:03:57;19;15;9
73305;PMS5003;61530;51.158;0.880;2023-10-09T03:05:00;20;16;11
73305;PMS5003;61530;51.158;0.880;2023-10-09T03:06:03;20;15;11
73305;PMS5003;61530;51.158;0.880;2023-10-09T03:07:06;21;19;11
73305;PMS5003;61530;51.158;0.880;2023-10-09T03:08:09;18;15;9
73305;PMS5003;61530;51.158;0.880;2023-10-09T03:09:12;14;14;9
73305;PMS5003;61530;51.158;0.880;2023-10-09T03:10:15;17;16;10
73305;PMS5003;61530;51.158;0.880;2023-10-09T03:11:18;23;23;11
73305;PMS5003;61530;51.158;0.880;2023-10-09T03:12:21;18;14;9
73305;PMS5003;61530;51.158;0.880;2023-10-09T03:13:24;19;17;10
73305;PMS5003;61530;51.158;0.880;2023-10-09T03:14:27;16;15;10
73305;PMS5003;61530;51.158;0.880;2023-10-09T03:15:31;17;16;10
73305;PMS5003;61530;51.158;0.880;2023-10-09T03:16:33;21;18;13
73305;PMS5003;61530;51.158;0.880;2023-10-09T03:17:36;23;22;10
73305;PMS5003;61530;51.158;0.880;2023-10-09T03:18:39;18;15;10
73305;PMS5003;61530;51.158;0.880;2023-10-09T03:19:42;25;19;11
73305;PMS5003;61530;51.158;0.880;2023-10-09T03:20:45;18;16;9
73305;PMS5003;61530;51.158;0.880;2023-10-09T03:21:48;20;17;11
73305;PMS5003;61530;51.158;0.880;2023-10-09T03:22:51;20;19;13
73305;PMS5003;61530;51.158;0.880;2023-10-09T03:23:55;18;16;10
73305;PMS5003;61530;51.158;0.880;2023-10-09T03:24:58;17;16;10
73305;PMS5003;61530;51.158;0.880;2023-10-09T03:26:01;14;13;10
73305;PMS5003;61530;51.158;0.880;2023-10-09T03:27:04;21;19;10
73305;PMS5003;61530;51.158;0.880;2023-10-09T03:28:07;19;15;10
73305;PMS5003;61530;51.158;0.880;2023-10-09T03:29:10;22;19;11
73305;PMS5003;61530;51.158;0.880;2023-10-09T03:30:14;16;14;10
73305;PMS5003;61530;51.158;0.880;2023-10-09T03:31:16;21;17;10
73305;PMS5003;61530;51.158;0.880;2023-10-09T03:32:19;17;17;10
73305;PMS5003;61530;51.158;0.880;2023-10-09T03:33:22;19;17;10
73305;PMS5003;61530;51.158;0.880;2023-10-09T03:34:26;21;17;11
73305;PMS5003;61530;51.158;0.880;2023-10-09T03:35:29;15;15;10
73305;PMS5003;61530;51.158;0.880;2023-10-09T03:36:32;17;15;10
73305;PMS5003;61530;51.158;0.880;2023-10-09T03:37:35;15;15;9
73305;PMS5003;61530;51.158;0.880;2023-10-09T03:38:38;14;14;10
73305;PMS5003;61530;51.158;0.880;2023-10-09T03:39:41;16;14;10
73305;PMS5003;61530;51.158;0.880;2023-10-09T03:40:44;14;14;10
73305;PMS5003;61530;51.158;0.880;2023-10-09T03:41:48;20;19;10
73305;PMS5003;61530;51.158;0.880;2023-10-09T03:42:51;19;15;11
73305;PMS5003;61530;51.158;0.880;2023-10-09T03:43:54;19;17;10
73305;PMS5003;61530;51.158;0.880;2023-10-09T03:44:57;19;18;9
73305;PMS5003;61530;51.158;0.880;2023-10-09T03:46:00;18;16;10
73305;PMS5003;61530;51.158;0.880;2023-10-09T03:47:03;15;12;10
73305;PMS5003;61530;51.158;0.880;2023-10-09T03:48:06;17;15;9
73305;PMS5003;61530;51.158;0.880;2023-10-09T03:49:09;21;17;10
73305;PMS5003;61530;51.158;0.880;2023-10-09T03:50:12;17;14;9
73305;PMS5003;61530;51.158;0.880;2023-10-09T03:51:15;17;16;9
73305;PMS5003;61530;51.158;0.880;2023-10-09T03:52:19;17;17;10
73305;PMS5003;61530;51.158;0.880;2023-10-09T03:53:21;18;17;11
73305;PMS5003;61530;51.158;0.880;2023-10-09T03:54:24;17;15;9
73305;PMS5003;61530;51.158;0.880;2023-10-09T03:55:27;21;17;11
73305;PMS5003;61530;51.158;0.880;2023-10-09T03:56:30;15;15;10
73305;PMS5003;61530;51.158;0.880;2023-10-09T03:57:33;22;19;11
73305;PMS5003;61530;51.158;0.880;2023-10-09T03:58:36;22;17;11
73305;PMS5003;61530;51.158;0.880;2023-10-09T03:59:39;19;15;11
73305;PMS5003;61530;51.158;0.880;2023-10-09T04:00:42;17;17;11
73305;PMS5003;61530;51.158;0.880;2023-10-09T04:01:45;18;18;11
73305;PMS5003;61530;51.158;0.880;2023-10-09T04:02:48;22;20;10
73305;PMS5003;61530;51.158;0.880;2023-10-09T04:03:51;25;24;11
73305;PMS5003;61530;51.158;0.880;2023-10-09T04:04:54;16;14;9
73305;PMS5003;61530;51.158;0.880;2023-10-09T04:05:57;16;16;11
73305;PMS5003;61530;51.158;0.880;2023-10-09T04:07:00;18;16;9
73305;PMS5003;61530;51.158;0.880;2023-10-09T04:08:04;21;18;11
73305;PMS5003;61530;51.158;0.880;2023-10-09T04:09:07;15;14;10
73305;PMS5003;61530;51.158;0.880;2023-10-09T04:10:09;19;17;10
73305;PMS5003;61530;51.158;0.880;2023-10-09T04:11:13;18;16;10
73305;PMS5003;61530;51.158;0.880;2023-10-09T04:12:15;17;16;11
73305;PMS5003;61530;51.158;0.880;2023-10-09T04:13:18;28;20;11
73305;PMS5003;61530;51.158;0.880;2023-10-09T04:14:21;17;14;10
73305;PMS5003;61530;51.158;0.880;2023-10-09T04:15:24;16;15;8
73305;PMS5003;61530;51.158;0.880;2023-10-09T04:16:27;23;18;11
73305;PMS5003;61530;51.158;0.880;2023-10-09T04:17:30;16;15;10
73305;PMS5003;61530;51.158;0.880;2023-10-09T04:18:33;17;14;9
73305;PMS5003;61530;51.158;0.880;2023-10-09T04:19:36;14;14;9
73305;PMS5003;61530;51.158;0.880;2023-10-09T04:20:39;18;17;11
73305;PMS5003;61530;51.158;0.880;2023-10-09T04:21:42;15;15;9
73305;PMS5003;61530;51.158;0.880;2023-10-09T04:22:45;19;19;12
73305;PMS5003;61530;51.158;0.880;2023-10-09T04:23:48;17;16;12
73305;PMS5003;61530;51.158;0.880;2023-10-09T04:24:52;28;21;14
73305;PMS5003;61530;51.158;0.880;2023-10-09T04:25:55;22;21;10
73305;PMS5003;61530;51.158;0.880;2023-10-09T04:26:58;20;15;10
73305;PMS5003;61530;51.158;0.880;2023-10-09T04:28:01;17;15;10
73305;PMS5003;61530;51.158;0.880;2023-10-09T04:29:04;18;15;10
73305;PMS5003;61530;51.158;0.880;2023-10-09T04:30:07;19;17;10
73305;PMS5003;61530;51.158;0.880;2023-10-09T04:31:10;17;15;11
73305;PMS5003;61530;51.158;0.880;2023-10-09T04:32:13;21;17;9
73305;PMS5003;61530;51.158;0.880;2023-10-09T04:33:16;16;16;11
73305;PMS5003;61530;51.158;0.880;2023-10-09T04:34:19;21;19;11
73305;PMS5003;61530;51.158;0.880;2023-10-09T04:35:22;22;20;10
73305;PMS5003;61530;51.158;0.880;2023-10-09T04:36:25;20;16;10
73305;PMS5003;61530;51.158;0.880;2023-10-09T04:37:28;18;16;10
73305;PMS5003;61530;51.158;0.880;2023-10-09T04:38:31;15;15;10
73305;PMS5003;61530;51.158;0.880;2023-10-09T04:39:34;22;20;11
73305;PMS5003;61530;51.158;0.880;2023-10-09T04:40:37;21;18;12
73305;PMS5003;61530;51.158;0.880;2023-10-09T04:41:40;19;17;8
73305;PMS5003;61530;51.158;0.880;2023-10-09T04:42:43;18;17;11
73305;PMS5003;61530;51.158;0.880;2023-10-09T04:43:46;21;21;10
73305;PMS5003;61530;51.158;0.880;2023-10-09T04:44:49;18;17;11
73305;PMS5003;61530;51.158;0.880;2023-10-09T04:45:52;18;18;13
73305;PMS5003;61530;51.158;0.880;2023-10-09T04:46:55;20;15;11
73305;PMS5003;61530;51.158;0.880;2023-10-09T04:47:58;18;16;11
73305;PMS5003;61530;51.158;0.880;2023-10-09T04:49:01;23;22;10
73305;PMS5003;61530;51.158;0.880;2023-10-09T04:50:04;15;14;10
73305;PMS5003;61530;51.158;0.880;2023-10-09T04:51:07;21;20;12
73305;PMS5003;61530;51.158;0.880;2023-10-09T04:52:10;20;18;12
73305;PMS5003;61530;51.158;0.880;2023-10-09T04:53:13;17;16;12
73305;PMS5003;61530;51.158;0.880;2023-10-09T04:54:16;18;18;12
73305;PMS5003;61530;51.158;0.880;2023-10-09T04:55:19;24;22;15
73305;PMS5003;61530;51.158;0.880;2023-10-09T04:56:22;23;19;14
73305;PMS5003;61530;51.158;0.880;2023-10-09T04:57:25;23;23;13
73305;PMS5003;61530;51.158;0.880;2023-10-09T04:58:28;26;21;15
73305;PMS5003;61530;51.158;0.880;2023-10-09T04:59:31;22;21;16
73305;PMS5003;61530;51.158;0.880;2023-10-09T05:00:34;29;25;16
73305;PMS5003;61530;51.158;0.880;2023-10-09T05:01:34;25;22;17
73305;PMS5003;61530;51.158;0.880;2023-10-09T05:02:37;22;21;13
73305;PMS5003;61530;51.158;0.880;2023-10-09T05:03:40;15;14;10
73305;PMS5003;61530;51.158;0.880;2023-10-09T05:04:43;24;17;10
73305;PMS5003;61530;51.158;0.880;2023-10-09T05:05:46;19;17;11
73305;PMS5003;61530;51.158;0.880;2023-10-09T05:06:49;19;18;13
73305;PMS5003;61530;51.158;0.880;2023-10-09T05:07:52;24;20;15
73305;PMS5003;61530;51.158;0.880;2023-10-09T05:08:55;24;21;17
73305;PMS5003;61530;51.158;0.880;2023-10-09T05:09:58;23;21;11
73305;PMS5003;61530;51.158;0.880;2023-10-09T05:11:01;19;18;13
73305;PMS5003;61530;51.158;0.880;2023-10-09T05:12:04;22;21;11
73305;PMS5003;61530;51.158;0.880;2023-10-09T05:13:07;18;17;12
73305;PMS5003;61530;51.158;0.880;2023-10-09T05:14:10;24;18;11
73305;PMS5003;61530;51.158;0.880;2023-10-09T05:15:13;28;19;13
73305;PMS5003;61530;51.158;0.880;2023-10-09T05:16:16;25;25;16
73305;PMS5003;61530;51.158;0.880;2023-10-09T05:17:19;25;20;12
73305;PMS5003;61530;51.158;0.880;2023-10-09T05:18:22;19;19;11
73305;PMS5003;61530;51.158;0.880;2023-10-09T05:19:25;20;17;13
73305;PMS5003;61530;51.158;0.880;2023-10-09T05:20:28;22;22;13
73305;PMS5003;61530;51.158;0.880;2023-10-09T05:21:31;26;23;15
73305;PMS5003;61530;51.158;0.880;2023-10-09T05:22:34;22;19;15
73305;PMS5003;61530;51.158;0.880;2023-10-09T05:23:37;16;16;11
73305;PMS5003;61530;51.158;0.880;2023-10-09T05:24:41;33;30;23
73305;PMS5003;61530;51.158;0.880;2023-10-09T05:25:44;22;20;12
73305;PMS5003;61530;51.158;0.880;2023-10-09T05:26:47;24;20;10
73305;PMS5003;61530;51.158;0.880;2023-10-09T05:27:50;29;28;23
73305;PMS5003;61530;51.158;0.880;2023-10-09T05:28:53;23;23;15
73305;PMS5003;61530;51.158;0.880;2023-10-09T05:29:57;20;19;13
73305;PMS5003;61530;51.158;0.880;2023-10-09T05:31:00;23;21;12
73305;PMS5003;61530;51.158;0.880;2023-10-09T05:32:04;16;16;12
73305;PMS5003;61530;51.158;0.880;2023-10-09T05:33:06;25;23;18
73305;PMS5003;61530;51.158;0.880;2023-10-09T05:34:09;17;16;12
73305;PMS5003;61530;51.158;0.880;2023-10-09T05:35:12;25;19;10
73305;PMS5003;61530;51.158;0.880;2023-10-09T05:36:15;18;18;11
73305;PMS5003;61530;51.158;0.880;2023-10-09T05:37:18;42;37;31
73305;PMS5003;61530;51.158;0.880;2023-10-09T05:38:21;46;46;39
73305;PMS5003;61530;51.158;0.880;2023-10-09T05:39:25;37;35;27
73305;PMS5003;61530;51.158;0.880;2023-10-09T05:40:28;46;45;39
73305;PMS5003;61530;51.158;0.880;2023-10-09T05:41:31;29;26;15
73305;PMS5003;61530;51.158;0.880;2023-10-09T05:42:35;23;21;12
73305;PMS5003;61530;51.158;0.880;2023-10-09T05:43:37;21;19;12
73305;PMS5003;61530;51.158;0.880;2023-10-09T05:44:40;32;32;28
73305;PMS5003;61530;51.158;0.880;2023-10-09T05:45:43;38;36;29
73305;PMS5003;61530;51.158;0.880;2023-10-09T05:46:46;48;45;39
73305;PMS5003;61530;51.158;0.880;2023-10-09T05:47:49;28;27;19
73305;PMS5003;61530;51.158;0.880;2023-10-09T05:48:52;23;19;13
73305;PMS5003;61530;51.158;0.880;2023-10-09T05:49:55;37;37;29
73305;PMS5003;61530;51.158;0.880;2023-10-09T05:50:58;29;27;15
73305;PMS5003;61530;51.158;0.880;2023-10-09T05:52:01;25;25;12
73305;PMS5003;61530;51.158;0.880;2023-10-09T05:53:04;38;35;27
73305;PMS5003;61530;51.158;0.880;2023-10-09T05:54:07;48;43;36
73305;PMS5003;61530;51.158;0.880;2023-10-09T05:55:10;29;28;18
73305;PMS5003;61530;51.158;0.880;2023-10-09T05:56:13;38;35;30
73305;PMS5003;61530;51.158;0.880;2023-10-09T05:57:16;33;31;28
73305;PMS5003;61530;51.158;0.880;2023-10-09T05:58:20;30;30;17
73305;PMS5003;61530;51.158;0.880;2023-10-09T05:59:23;38;36;29
73305;PMS5003;61530;51.158;0.880;2023-10-09T06:00:26;34;34;30
73305;PMS5003;61530;51.158;0.880;2023-10-09T06:01:29;34;30;25
73305;PMS5003;61530;51.158;0.880;2023-10-09T06:02:32;38;34;26
73305;PMS5003;61530;51.158;0.880;2023-10-09T06:03:35;29;28;15
73305;PMS5003;61530;51.158;0.880;2023-10-09T06:04:38;24;22;13
73305;PMS5003;61530;51.158;0.880;2023-10-09T06:05:41;29;26;14
73305;PMS5003;61530;51.158;0.880;2023-10-09T06:06:44;26;22;14
73305;PMS5003;61530;51.158;0.880;2023-10-09T06:07:47;22;22;12
73305;PMS5003;61530;51.158;0.880;2023-10-09T06:08:50;27;22;13
73305;PMS5003;61530;51.158;0.880;2023-10-09T06:09:53;23;19;14
73305;PMS5003;61530;51.158;0.880;2023-10-09T06:10:56;38;36;28
73305;PMS5003;61530;51.158;0.880;2023-10-09T06:11:59;42;41;33
73305;PMS5003;61530;51.158;0.880;2023-10-09T06:13:02;25;23;12
73305;PMS5003;61530;51.158;0.880;2023-10-09T06:14:05;44;41;32
73305;PMS5003;61530;51.158;0.880;2023-10-09T06:15:08;48;46;37
73305;PMS5003;61530;51.158;0.880;2023-10-09T06:16:11;28;24;13
73305;PMS5003;61530;51.158;0.880;2023-10-09T06:17:14;26;25;18
73305;PMS5003;61530;51.158;0.880;2023-10-09T06:18:17;37;35;28
73305;PMS5003;61530;51.158;0.880;2023-10-09T06:19:20;31;30;25
73305;PMS5003;61530;51.158;0.880;2023-10-09T06:20:23;25;24;11
73305;PMS5003;61530;51.158;0.880;2023-10-09T06:21:26;52;48;42
73305;PMS5003;61530;51.158;0.880;2023-10-09T06:22:29;57;54;47
73305;PMS5003;61530;51.158;0.880;2023-10-09T06:23:32;47;46;39
73305;PMS5003;61530;51.158;0.880;2023-10-09T06:24:35;45;43;33
73305;PMS5003;61530;51.158;0.880;2023-10-09T06:25:38;29;25;19
73305;PMS5003;61530;51.158;0.880;2023-10-09T06:26:41;28;26;21
73305;PMS5003;61530;51.158;0.880;2023-10-09T06:27:44;40;40;36
73305;PMS5003;61530;51.158;0.880;2023-10-09T06:28:47;27;25;21
73305;PMS5003;61530;51.158;0.880;2023-10-09T06:29:50;33;30;23
73305;PMS5003;61530;51.158;0.880;2023-10-09T06:30:53;42;37;28
73305;PMS5003;61530;51.158;0.880;2023-10-09T06:31:56;27;24;17
73305;PMS5003;61530;51.158;0.880;2023-10-09T06:32:59;38;37;26
73305;PMS5003;61530;51.158;0.880;2023-10-09T06:34:02;44;39;32
73305;PMS5003;61530;51.158;0.880;2023-10-09T06:35:05;26;24;17
73305;PMS5003;61530;51.158;0.880;2023-10-09T06:36:11;34;33;26
73305;PMS5003;61530;51.158;0.880;2023-10-09T06:37:11;30;24;18
73305;PMS5003;61530;51.158;0.880;2023-10-09T06:38:14;58;57;48
73305;PMS5003;61530;51.158;0.880;2023-10-09T06:39:17;27;25;19
73305;PMS5003;61530;51.158;0.880;2023-10-09T06:40:20;24;24;13
73305;PMS5003;61530;51.158;0.880;2023-10-09T06:41:23;31;28;18
73305;PMS5003;61530;51.158;0.880;2023-10-09T06:42:26;44;44;35
73305;PMS5003;61530;51.158;0.880;2023-10-09T06:43:29;27;27;18
73305;PMS5003;61530;51.158;0.880;2023-10-09T06:44:32;50;48;37
73305;PMS5003;61530;51.158;0.880;2023-10-09T06:45:35;47;45;36
73305;PMS5003;61530;51.158;0.880;2023-10-09T06:46:38;30;30;18